Latest Weather Observations for Canberra

IDN60801

Issued at 6:35 pm EST Thursday 28 August 2014 (issued every 30 minutes, with the page automatically refreshed every 10 minutes)

About weather observations | Map of weather stations | Latest weather observations for NSW | Other Formats
Station Details ID: 070351 Name: CANBERRA AIRPORT Lat: -35.31 Lon: 149.20 Height: 577.05 m
Data from the previous 72 hours. | See also: Recent months at Canberra
Date/Time
EST
Temp
°C
App
Temp
°C
Dew
Point
Rel
Hum
%
Delta-T
°C
Wind Press
QNH
hPa
Press
MSL
hPa
Rain
since 9 am
mm
Dir
 
Spd
km/h
Gust
km/h
Spd
kts
Gust
kts
28/06:30pm 9.3 7.0 5.5 77 1.8 NNE 7 9 4 5 1027.9 - 0.0
28/06:00pm 9.5 6.4 5.5 76 1.9 ENE 11 15 6 8 1027.8 1028.9 0.0
28/05:30pm 10.5 7.3 5.3 70 2.5 E 11 13 6 7 1027.4 - 0.0
28/05:00pm 12.1 7.7 5.0 62 3.4 E 17 20 9 11 1027.1 - 0.0
28/04:30pm 13.7 9.1 5.8 59 3.9 E 19 22 10 12 1027.0 - 0.0
28/04:00pm 12.9 8.6 5.1 59 3.7 ESE 17 20 9 11 1027.0 - 0.0
28/03:30pm 14.3 12.2 5.9 57 4.1 ESE 6 11 3 6 1026.9 - 0.0
28/03:00pm 14.8 10.9 5.3 53 4.6 SE 15 28 8 15 1027.0 1028.0 0.0
28/02:30pm 13.8 9.8 4.7 54 4.3 ESE 15 26 8 14 1027.0 - 0.0
28/02:00pm 13.9 10.0 5.3 56 4.2 E 15 22 8 12 1027.1 - 0.0
28/01:30pm 13.8 9.0 5.4 57 4.1 E 20 26 11 14 1027.3 - 0.0
28/01:00pm 14.0 10.4 5.1 55 4.3 ESE 13 26 7 14 1027.4 - 0.0
28/12:30pm 14.6 10.5 6.2 57 4.2 ESE 17 26 9 14 1027.7 - 0.0
28/12:00pm 14.1 11.1 6.2 59 3.9 S 11 17 6 9 1028.2 1029.3 0.0
28/11:30am 12.6 9.3 4.8 59 3.7 S 11 15 6 8 1028.8 - 0.0
28/11:00am 12.5 8.5 4.7 59 3.7 S 15 20 8 11 1029.0 - 0.0
28/10:30am 12.2 8.6 4.9 61 3.5 S 13 19 7 10 1029.1 - 0.0
28/10:00am 11.4 7.2 3.9 60 3.5 S 15 20 8 11 1029.3 - 0.0
28/09:30am 10.3 5.2 3.3 62 3.2 S 19 26 10 14 1029.3 - 0.0
28/09:00am 8.8 5.9 4.6 75 1.9 SSW 9 11 5 6 1029.5 1030.6 0.0
28/08:30am 7.4 5.2 3.6 77 1.7 SW 4 9 2 5 1029.5 - 0.0
28/08:00am 6.4 3.4 4.1 85 1.0 SE 9 13 5 7 1029.4 - 0.0
28/07:30am 4.5 1.3 2.8 89 0.7 SE 9 13 5 7 1029.1 - 0.0
28/07:00am 3.0 0.2 2.1 94 0.4 SSE 6 9 3 5 1028.8 - 0.0
28/06:30am 1.7 -0.9 0.7 93 0.4 S 4 7 2 4 1028.6 - 0.0
28/06:00am 2.8 -1.7 2.1 95 0.3 SE 15 17 8 9 1028.3 1029.4 0.0
28/05:30am 2.1 -2.6 1.1 93 0.4 SE 15 17 8 9 1027.9 - 0.0
28/05:00am 2.2 -2.4 1.3 94 0.4 SE 15 17 8 9 1027.8 - 0.0
28/04:30am 2.3 -0.2 1.4 94 0.4 SSE 4 9 2 5 1027.8 - 0.0
28/04:00am 2.9 -1.2 2.2 95 0.3 SE 13 17 7 9 1027.7 - 0.0
28/03:30am 2.2 -0.9 1.3 94 0.4 SSW 7 9 4 5 1027.9 - 0.0
28/03:00am 3.3 1.3 2.4 94 0.4 WSW 2 6 1 3 1028.0 1029.1 0.0
28/02:30am 3.5 -0.2 2.6 94 0.4 SSE 11 15 6 8 1027.9 - 0.0
28/02:00am 3.2 -0.8 2.6 96 0.2 SE 13 17 7 9 1028.0 - 0.0
28/01:30am 2.9 -0.4 2.2 95 0.3 SE 9 15 5 8 1028.2 - 0.0
28/01:00am 2.1 -1.8 1.4 95 0.3 SSE 11 15 6 8 1028.5 - 0.0
28/12:30am 3.1 -0.3 1.9 92 0.5 SE 9 11 5 6 1028.6 - 0.0
28/12:00am 3.5 1.6 2.9 96 0.2 NNW 2 7 1 4 1028.7 1029.7 0.0
 
Date/Time
EST
Temp
°C
App
Temp
°C
Dew
Point
Rel
Hum
%
Delta-T
°C
Wind Press
QNH
hPa
Press
MSL
hPa
Rain
since 9 am
mm
Dir
 
Spd
km/h
Gust
km/h
Spd
kts
Gust
kts
27/11:30pm 3.1 -1.1 1.8 91 0.5 SE 13 15 7 8 1028.6 - 0.0
27/11:00pm 4.3 0.2 2.5 88 0.8 SE 13 15 7 8 1028.6 - 0.0
27/10:30pm 5.0 1.2 4.0 93 0.4 ESE 13 15 7 8 1028.6 - 0.0
27/10:00pm 4.0 0.0 2.7 91 0.5 SE 13 15 7 8 1028.5 - 0.0
27/09:30pm 3.8 -0.2 2.6 92 0.5 SE 13 15 7 8 1028.2 - 0.0
27/09:00pm 4.8 2.6 3.6 92 0.5 ESE 4 7 2 4 1028.2 1029.3 0.0
27/08:30pm 5.8 2.2 3.1 83 1.2 E 11 13 6 7 1028.2 - 0.0
27/08:00pm 6.8 2.0 4.5 85 1.0 E 19 20 10 11 1028.2 - 0.0
27/07:30pm 6.0 2.0 3.0 81 1.3 ESE 13 17 7 9 1028.2 - 0.0
27/07:00pm 7.7 3.1 3.7 76 1.8 E 17 19 9 10 1027.8 - 0.0
27/06:30pm 8.7 4.2 4.1 73 2.1 ESE 17 20 9 11 1027.7 - 0.0
27/06:00pm 8.8 4.2 3.8 71 2.2 ESE 17 22 9 12 1027.3 1028.3 0.0
27/05:30pm 10.0 4.5 4.0 66 2.7 ESE 22 28 12 15 1027.0 - 0.0
27/05:00pm 11.6 6.5 3.9 59 3.6 SE 20 30 11 16 1026.9 - 0.0
27/04:30pm 11.8 6.4 4.3 60 3.5 ESE 22 30 12 16 1026.7 - 0.0
27/04:00pm 13.2 7.4 4.6 56 4.1 SE 24 30 13 16 1026.5 - 0.0
27/03:30pm 14.3 9.3 4.6 52 4.6 E 20 28 11 15 1026.2 - 0.0
27/03:00pm 14.3 9.7 3.5 48 5.0 ESE 17 26 9 14 1026.1 1027.2 0.0
27/02:30pm 14.4 10.0 4.7 52 4.7 SE 17 26 9 14 1026.3 - 0.0
27/02:00pm 13.4 7.5 4.0 53 4.4 ESE 24 32 13 17 1026.4 - 0.0
27/01:30pm 12.5 5.9 4.2 57 3.9 SE 28 41 15 22 1026.4 - 0.0
27/01:00pm 14.5 9.1 2.4 44 5.5 ESE 20 26 11 14 1026.5 - 0.0
27/12:30pm 14.4 9.1 3.2 47 5.2 ESE 20 30 11 16 1026.9 - 0.0
27/12:00pm 13.8 7.8 3.3 49 4.8 SE 24 33 13 18 1027.3 1028.3 0.0
27/11:30am 13.0 7.1 2.0 47 4.9 SE 22 32 12 17 1027.7 - 0.0
27/11:00am 13.5 8.5 4.4 54 4.3 SE 20 37 11 20 1027.9 - 0.0
27/10:30am 12.1 7.2 3.9 57 3.8 ESE 19 30 10 16 1028.2 - 0.0
27/10:00am 11.5 7.7 5.6 67 2.8 ESE 15 20 8 11 1028.2 - 0.0
27/09:30am 10.0 5.4 5.4 73 2.2 S 19 24 10 13 1028.2 - 0.0
27/09:20am 10.4 5.7 6.2 75 2.0 S 20 26 11 14 1028.1 - 0.0
27/09:00am 9.1 4.3 5.5 78 1.7 SSE 20 26 11 14 1028.2 1029.3 0.4
27/08:30am 8.6 6.5 5.9 83 1.3 SE 6 7 3 4 1027.9 - 0.4
27/08:00am 7.7 5.0 5.5 86 1.0 ESE 9 9 5 5 1027.7 - 0.4
27/07:30am 7.0 4.7 5.6 91 0.6 ESE 7 9 4 5 1027.4 - 0.4
27/07:00am 6.1 3.6 4.7 91 0.6 ESE 7 9 4 5 1027.3 - 0.4
27/06:30am 5.5 2.5 4.0 90 0.7 SE 9 9 5 5 1027.3 - 0.4
27/06:00am 5.3 2.3 4.0 91 0.6 SE 9 9 5 5 1027.2 1028.2 0.4
27/05:30am 5.4 2.5 4.5 94 0.4 SE 9 13 5 7 1026.9 - 0.4
27/05:00am 3.6 0.3 2.6 93 0.4 SSE 9 11 5 6 1026.9 - 0.4
27/04:30am 4.3 1.7 3.1 92 0.5 SE 6 9 3 5 1026.7 - 0.4
27/04:00am 4.7 1.9 3.4 91 0.6 SSE 7 9 4 5 1026.5 - 0.4
27/03:30am 4.8 2.1 3.5 91 0.6 S 7 11 4 6 1026.5 - 0.4
27/03:00am 5.1 2.0 3.6 90 0.6 SSE 9 13 5 7 1026.8 1027.8 0.4
27/02:30am 6.3 2.6 4.6 89 0.8 S 13 15 7 8 1027.1 - 0.4
27/02:00am 7.3 4.6 5.4 88 0.9 SSE 9 15 5 8 1027.2 - 0.4
27/01:30am 8.5 6.1 6.8 89 0.8 ESE 9 11 5 6 1027.3 - 0.4
27/01:00am 8.7 6.3 6.8 88 0.9 SE 9 13 5 7 1027.5 - 0.4
27/12:30am 8.4 5.6 6.9 90 0.7 SSE 11 13 6 7 1027.4 - 0.4
27/12:00am 8.7 5.5 6.8 88 0.9 SSE 13 17 7 9 1027.4 1028.5 0.4
 
Date/Time
EST
Temp
°C
App
Temp
°C
Dew
Point
Rel
Hum
%
Delta-T
°C
Wind Press
QNH
hPa
Press
MSL
hPa
Rain
since 9 am
mm
Dir
 
Spd
km/h
Gust
km/h
Spd
kts
Gust
kts
26/11:30pm 9.1 4.6 6.2 82 1.4 SSE 19 32 10 17 1027.3 - 0.4
26/11:00pm 9.4 5.4 6.7 83 1.3 SSE 17 30 9 16 1027.1 - 0.4
26/10:30pm 8.8 5.4 7.7 93 0.5 SSE 15 20 8 11 1027.1 - 0.4
26/10:00pm 6.7 3.5 5.2 90 0.7 S 11 15 6 8 1027.2 - 0.4
26/09:30pm 6.7 3.5 4.9 88 0.8 SE 11 13 6 7 1027.2 - 0.4
26/09:00pm 7.5 3.9 5.1 85 1.1 SSE 13 15 7 8 1027.3 1028.3 0.4
26/08:30pm 7.9 4.5 5.9 87 0.9 S 13 17 7 9 1027.1 - 0.4
26/08:00pm 9.2 5.6 6.8 85 1.2 SSE 15 20 8 11 1027.0 - 0.4
26/07:30pm 10.1 6.1 6.8 80 1.6 SSE 17 26 9 14 1026.8 - 0.4
26/07:00pm 10.0 6.8 6.9 81 1.5 S 13 17 7 9 1026.4 - 0.4
26/06:30pm 9.5 5.8 6.4 81 1.5 SSE 15 22 8 12 1026.1 - 0.4
26/06:00pm 9.8 6.1 6.3 79 1.7 SE 15 20 8 11 1025.7 1026.7 0.4
26/05:30pm 10.7 6.3 6.6 76 2.0 ESE 19 24 10 13 1025.6 - 0.4
26/05:00pm 11.2 8.1 7.3 77 1.9 E 13 22 7 12 1025.5 - 0.4
26/04:30pm 11.3 7.0 7.2 76 2.0 E 19 26 10 14 1025.5 - 0.4
26/04:00pm 11.7 7.3 7.2 74 2.2 ESE 20 28 11 15 1025.5 - 0.4
26/03:30pm 11.4 5.8 7.1 75 2.1 E 26 37 14 20 1025.3 - 0.4
26/03:00pm 11.2 5.1 8.2 82 1.5 E 30 41 16 22 1025.3 1026.3 0.4
26/02:30pm 12.0 7.9 8.7 80 1.7 E 20 28 11 15 1025.2 - 0.2
26/02:00pm 12.8 7.7 7.7 71 2.6 E 24 33 13 18 1025.0 - 0.2
26/01:30pm 11.8 6.0 8.1 78 1.9 ESE 28 37 15 20 1025.1 - 0.2
26/01:00pm 12.7 7.6 7.6 71 2.6 ESE 24 39 13 21 1025.0 - 0.2
26/12:30pm 12.4 7.9 8.7 78 1.9 E 22 30 12 16 1025.3 - 0.2
26/12:00pm 11.4 4.8 8.6 83 1.4 ESE 33 46 18 25 1025.7 1026.7 0.2
26/11:30am 12.5 6.5 8.6 77 2.0 ESE 30 39 16 21 1025.7 - 0.2
26/11:00am 12.2 8.1 8.7 79 1.8 ESE 20 32 11 17 1025.9 - 0.2
26/10:30am 11.5 7.4 8.7 83 1.4 ESE 20 28 11 15 1026.2 - 0.0
26/10:00am 12.1 7.7 8.8 80 1.7 SE 22 32 12 17 1026.2 - 0.0
26/09:30am 10.9 7.9 7.6 80 1.6 SE 13 24 7 13 1026.3 - 0.0
26/09:00am 10.5 6.7 7.6 82 1.4 SSE 17 26 9 14 1026.2 1027.3 12.6
26/08:30am 9.7 5.9 7.5 86 1.1 SSE 17 26 9 14 1026.1 - 12.6
26/08:00am 9.5 6.0 7.4 87 1.0 SE 15 24 8 13 1026.0 - 12.6
26/07:30am 9.0 5.5 7.1 88 0.9 SSE 15 20 8 11 1025.7 - 12.6
26/07:00am 8.5 5.9 7.6 94 0.4 SSE 11 15 6 8 1025.4 - 12.6
26/06:30am 8.4 6.3 8.1 98 0.1 SE 9 11 5 6 1024.9 - 12.6
26/06:00am 8.3 5.3 7.9 97 0.2 SSE 13 15 7 8 1024.5 1025.6 12.6
26/05:30am 8.3 6.1 8.0 98 0.1 SE 9 13 5 7 1024.2 - 12.6
26/05:00am 8.1 5.4 7.5 96 0.3 SSE 11 15 6 8 1024.1 - 12.4
26/04:30am 8.1 5.1 7.5 96 0.3 SSE 13 17 7 9 1024.1 - 12.4
26/04:00am 8.2 5.1 7.4 95 0.4 SSE 13 15 7 8 1024.1 - 12.4
26/03:30am 8.1 5.3 7.0 93 0.5 SSE 11 15 6 8 1024.1 - 12.4
26/03:00am 7.6 5.2 6.9 95 0.3 SSE 9 13 5 7 1023.9 1024.9 12.4
26/02:30am 7.9 5.0 6.5 91 0.7 SSE 11 13 6 7 1024.0 - 12.2
26/02:00am 7.3 3.9 5.9 91 0.7 SSE 13 19 7 10 1024.1 - 12.2
26/01:30am 7.9 3.2 5.9 87 0.9 S 20 26 11 14 1024.2 - 12.2
26/01:00am 7.5 4.2 6.3 92 0.6 S 13 17 7 9 1024.6 - 12.2
26/12:30am 6.2 3.9 5.6 96 0.3 SSE 7 11 4 6 1024.9 - 12.2
26/12:00am 7.0 5.0 6.4 96 0.3 SSE 6 7 3 4 1025.0 1026.0 12.2
 
Date/Time
EST
Temp
°C
App
Temp
°C
Dew
Point
Rel
Hum
%
Delta-T
°C
Wind Press
QNH
hPa
Press
MSL
hPa
Rain
since 9 am
mm
Dir
 
Spd
km/h
Gust
km/h
Spd
kts
Gust
kts
25/11:30pm 7.1 5.0 6.7 97 0.2 SSE 7 7 4 4 1025.1 - 12.0
25/11:05pm 7.0 4.9 6.6 97 0.2 SSE 7 9 4 5 1025.3 - 12.0
25/11:00pm 7.1 5.0 6.7 97 0.2 SSE 7 9 4 5 1025.3 - 12.0
25/10:43pm 7.1 4.2 6.5 96 0.3 S 11 13 6 7 1025.4 - 12.0
25/10:30pm 7.2 4.3 6.5 95 0.3 S 11 13 6 7 1025.6 - 12.0
25/10:00pm 7.3 4.0 6.4 94 0.4 S 13 15 7 8 1025.7 - 12.0
25/09:30pm 7.4 4.6 7.1 98 0.1 SSE 11 17 6 9 1025.8 - 11.8
25/09:00pm 7.3 4.5 6.9 97 0.2 S 11 13 6 7 1026.0 1027.1 11.8
25/08:30pm 7.5 3.9 6.9 96 0.3 SSW 15 17 8 9 1026.0 - 11.0
25/08:00pm 8.1 4.0 7.7 97 0.2 S 19 24 10 13 1026.0 - 9.6
25/07:30pm 8.0 5.7 7.6 97 0.2 S 9 11 5 6 1025.5 - 8.0
25/07:04pm 8.1 7.1 7.2 94 0.4 ESE 2 11 1 6 1025.5 - 6.0
25/07:00pm 8.4 7.8 7.5 94 0.4 CALM 0 0 0 0 1025.3 - 5.6

Other Formats:

Comma delimited format used in spreadsheet applications
http://www.bom.gov.au/fwo/IDN60801/IDN60801.94926.axf

JavaScript Object Notation format (JSON) in row-major order
http://www.bom.gov.au/fwo/IDN60801/IDN60801.94926.json